Time;durP1;ratioP1;P1;durP2;ratioP2;P2;SDS_P1;SDS_P2;PMS_P1;PMS_P2;Temp;Humidity;BMP_temperature;BMP_pressure;BME280_temperature;BME280_humidity;BME280_pressure;Samples;Min_cycle;Max_cycle;Signal;HPM_P1;HPM_P2
2022/05/09 04:01:43;;;;;;;25.33;18.90;;;8.80;99.90;;;;;;5410812;23;20051;-75
2022/05/09 04:04:08;;;;;;;27.38;20.13;;;8.80;99.90;;;;;;4994874;28;20495;-76
2022/05/09 04:06:35;;;;;;;25.42;19.58;;;8.80;99.90;;;;;;4996997;28;20038;-75
2022/05/09 04:09:00;;;;;;;30.75;21.73;;;8.90;99.90;;;;;;4995855;28;20046;-75
2022/05/09 04:11:26;;;;;;;28.65;20.42;;;8.90;99.90;;;;;;4997064;28;20610;-75
2022/05/09 04:13:51;;;;;;;27.63;20.30;;;8.90;99.90;;;;;;4995137;28;20042;-75
2022/05/09 04:19:01;;;;;;;23.98;19.08;;;8.90;99.90;;;;;;4996979;28;20500;-75
2022/05/09 04:21:27;;;;;;;24.98;19.70;;;9.00;99.90;;;;;;4996796;28;20035;-75
2022/05/09 04:23:56;;;;;;;23.38;18.27;;;9.00;99.90;;;;;;4996653;28;20062;-75
2022/05/09 04:26:23;;;;;;;28.00;20.35;;;9.00;99.90;;;;;;4996517;28;20041;-75
2022/05/09 04:28:49;;;;;;;26.88;20.38;;;9.00;99.90;;;;;;4996650;28;20034;-76
2022/05/09 04:31:15;;;;;;;25.92;20.00;;;9.00;99.90;;;;;;4994823;28;20043;-76
2022/05/09 04:33:41;;;;;;;27.17;20.55;;;9.10;99.90;;;;;;4994804;28;20034;-75
2022/05/09 04:36:07;;;;;;;28.15;20.95;;;9.10;99.90;;;;;;4997039;28;20035;-75
2022/05/09 04:38:33;;;;;;;26.83;20.60;;;9.20;99.90;;;;;;4996734;28;20035;-76
2022/05/09 04:40:58;;;;;;;27.85;21.63;;;9.30;99.90;;;;;;4996287;28;20181;-75
2022/05/09 04:43:28;;;;;;;26.38;20.75;;;9.30;99.90;;;;;;4996073;28;20066;-75
2022/05/09 04:45:54;;;;;;;25.95;19.90;;;9.30;99.90;;;;;;4995105;28;20046;-75
2022/05/09 04:48:21;;;;;;;28.02;20.35;;;9.40;99.90;;;;;;4996325;28;20038;-76
2022/05/09 04:50:47;;;;;;;26.58;21.70;;;9.40;99.90;;;;;;4996205;28;20046;-75
2022/05/09 04:53:12;;;;;;;28.10;20.92;;;9.50;99.90;;;;;;4995971;28;20050;-76
2022/05/09 04:55:38;;;;;;;28.92;21.33;;;9.50;99.90;;;;;;4996250;28;20090;-76
2022/05/09 04:58:04;;;;;;;26.77;21.23;;;9.50;99.90;;;;;;4996527;28;20047;-76
2022/05/09 05:00:30;;;;;;;27.38;20.08;;;9.60;99.90;;;;;;4995249;28;20043;-75
2022/05/09 05:02:57;;;;;;;27.35;20.58;;;9.70;99.90;;;;;;4992600;28;20038;-75
2022/05/09 05:05:24;;;;;;;25.83;20.23;;;9.70;99.90;;;;;;4996477;28;20098;-74
2022/05/09 05:07:51;;;;;;;26.98;20.23;;;9.80;99.90;;;;;;4996090;28;20035;-74
2022/05/09 05:10:17;;;;;;;25.85;19.90;;;9.80;99.90;;;;;;4995947;28;20042;-74
2022/05/09 05:12:43;;;;;;;26.27;20.88;;;9.90;99.90;;;;;;4994727;28;20093;-75
2022/05/09 05:15:09;;;;;;;26.48;21.40;;;10.00;99.90;;;;;;4996019;28;20041;-75
2022/05/09 05:17:36;;;;;;;25.50;20.75;;;10.10;99.90;;;;;;4996218;28;20045;-75
2022/05/09 05:20:04;;;;;;;27.50;21.73;;;10.20;99.90;;;;;;4995653;28;20043;-75
2022/05/09 05:22:34;;;;;;;28.55;22.50;;;10.40;99.90;;;;;;4994252;28;20035;-76
2022/05/09 05:24:59;;;;;;;28.05;21.98;;;10.50;99.90;;;;;;4995652;28;20041;-76
2022/05/09 05:27:25;;;;;;;27.85;22.10;;;10.60;99.90;;;;;;4995697;28;20035;-75
2022/05/09 05:29:53;;;;;;;24.73;21.23;;;10.70;99.90;;;;;;4995936;28;20043;-75
2022/05/09 05:32:21;;;;;;;26.67;21.55;;;10.90;99.90;;;;;;4995557;28;20035;-76
2022/05/09 05:34:48;;;;;;;28.95;21.67;;;10.90;99.90;;;;;;4994251;28;20086;-75
2022/05/09 05:37:16;;;;;;;31.30;21.98;;;11.10;99.90;;;;;;4996067;28;20486;-75
2022/05/09 05:39:42;;;;;;;28.75;21.27;;;11.20;99.90;;;;;;4996454;28;20038;-75
2022/05/09 05:42:08;;;;;;;26.63;20.17;;;11.30;99.90;;;;;;4995936;28;20059;-76
2022/05/09 05:44:35;;;;;;;23.55;19.15;;;11.50;99.90;;;;;;4993785;28;20133;-75
2022/05/09 05:47:09;;;;;;;27.20;19.55;;;11.60;99.90;;;;;;4994150;28;20043;-75
2022/05/09 05:49:36;;;;;;;23.67;18.10;;;11.70;99.90;;;;;;4994090;28;20558;-75
2022/05/09 05:52:03;;;;;;;23.88;17.77;;;11.80;99.90;;;;;;4994020;28;20481;-77
2022/05/09 05:54:34;;;;;;;21.10;17.38;;;11.90;99.90;;;;;;4995228;28;20041;-75
2022/05/09 05:57:01;;;;;;;22.23;16.63;;;12.10;99.90;;;;;;4994309;28;20046;-76
2022/05/09 05:59:27;;;;;;;18.77;15.75;;;12.20;99.90;;;;;;4995976;28;20078;-76
2022/05/09 06:01:53;;;;;;;19.88;16.30;;;12.30;99.90;;;;;;4995258;28;20034;-76
2022/05/09 06:04:20;;;;;;;19.90;15.27;;;12.40;99.90;;;;;;4995168;28;20034;-77
2022/05/09 06:06:46;;;;;;;17.00;14.75;;;12.50;99.90;;;;;;4995557;28;20027;-77
2022/05/09 06:09:12;;;;;;;22.08;14.93;;;12.60;99.90;;;;;;4995205;28;20038;-76
2022/05/09 06:11:38;;;;;;;18.50;14.60;;;12.70;99.90;;;;;;4994898;28;20035;-76
2022/05/09 06:14:05;;;;;;;15.65;13.75;;;12.80;99.90;;;;;;4995348;28;20461;-77
2022/05/09 06:16:31;;;;;;;17.70;14.43;;;12.90;99.90;;;;;;4995141;28;20038;-77
2022/05/09 06:18:57;;;;;;;17.08;12.80;;;13.00;99.90;;;;;;4995443;28;20562;-76
2022/05/09 06:21:22;;;;;;;15.40;13.00;;;13.00;99.90;;;;;;4995301;28;20050;-78
2022/05/09 06:23:49;;;;;;;16.42;13.10;;;13.20;99.90;;;;;;4995931;28;20385;-78
2022/05/09 06:26:15;;;;;;;13.93;12.20;;;13.30;99.90;;;;;;4995016;28;20031;-76
2022/05/09 06:28:41;;;;;;;17.55;13.10;;;13.40;99.90;;;;;;4994724;28;20091;-76
2022/05/09 06:31:07;;;;;;;15.30;12.45;;;13.40;99.90;;;;;;4993563;28;20133;-75
2022/05/09 06:33:33;;;;;;;14.02;12.50;;;13.50;99.90;;;;;;4997685;28;20035;-75
2022/05/09 06:36:00;;;;;;;19.77;12.77;;;13.60;99.90;;;;;;4998441;28;20039;-77
2022/05/09 06:38:27;;;;;;;14.88;11.82;;;13.70;99.90;;;;;;4998255;28;20035;-77
2022/05/09 06:40:54;;;;;;;15.40;12.00;;;13.80;99.90;;;;;;4998384;28;20036;-76
2022/05/09 06:43:22;;;;;;;15.68;11.82;;;13.90;99.90;;;;;;4998209;28;20038;-76
2022/05/09 06:45:49;;;;;;;13.32;11.93;;;14.00;99.90;;;;;;4998585;28;20035;-76
2022/05/09 06:48:15;;;;;;;15.80;12.05;;;14.10;99.90;;;;;;4998134;28;20062;-75
2022/05/09 06:50:41;;;;;;;14.55;10.93;;;14.20;99.90;;;;;;4997665;28;20043;-76
2022/05/09 06:53:08;;;;;;;12.40;11.07;;;14.30;99.90;;;;;;4998164;28;20023;-74
2022/05/09 06:55:36;;;;;;;12.35;11.00;;;14.50;99.90;;;;;;4998157;28;20042;-75
2022/05/09 06:58:14;;;;;;;14.60;11.13;;;14.70;99.90;;;;;;4998038;28;20031;-75
2022/05/09 07:00:45;;;;;;;16.25;11.30;;;14.80;99.90;;;;;;4997584;28;20076;-77
2022/05/09 07:03:12;;;;;;;14.45;11.45;;;14.90;99.90;;;;;;4999218;28;20058;-76
2022/05/09 07:05:38;;;;;;;13.43;10.73;;;15.00;99.90;;;;;;4998243;28;20098;-81
2022/05/09 07:08:05;;;;;;;16.08;10.48;;;15.10;99.90;;;;;;4998197;28;20061;-78
2022/05/09 07:10:30;;;;;;;15.85;10.13;;;15.30;99.90;;;;;;4997907;28;20039;-77
2022/05/09 07:12:58;;;;;;;12.65;10.18;;;15.50;99.90;;;;;;4997089;28;20508;-77
2022/05/09 07:15:27;;;;;;;13.73;10.32;;;15.60;99.90;;;;;;4998336;28;20019;-78
2022/05/09 07:17:54;;;;;;;17.08;10.98;;;15.70;99.90;;;;;;4997961;28;20109;-77
2022/05/09 07:20:21;;;;;;;13.85;10.45;;;15.90;99.90;;;;;;4998998;28;20030;-78
2022/05/09 07:22:52;;;;;;;12.57;10.27;;;16.00;99.90;;;;;;4997840;28;20031;-78
2022/05/09 07:25:19;;;;;;;13.75;9.43;;;16.10;99.90;;;;;;4998590;28;20035;-75
2022/05/09 07:27:44;;;;;;;10.48;9.10;;;16.20;99.90;;;;;;4999064;28;20031;-80
2022/05/09 07:30:11;;;;;;;12.77;9.90;;;16.60;99.90;;;;;;5002329;28;20047;-78
2022/05/09 07:32:37;;;;;;;11.80;9.45;;;16.70;99.90;;;;;;5002989;28;20058;-78
2022/05/09 07:35:07;;;;;;;13.02;8.98;;;16.80;99.90;;;;;;5001436;28;20081;-77
2022/05/09 07:37:32;;;;;;;14.15;10.13;;;17.00;99.90;;;;;;4999489;28;20035;-76
2022/05/09 07:39:58;;;;;;;9.70;8.70;;;17.30;99.90;;;;;;4997712;28;20039;-75
2022/05/09 07:42:24;;;;;;;10.13;8.98;;;17.50;99.90;;;;;;4997090;28;20074;-76
2022/05/09 07:44:52;;;;;;;9.82;8.82;;;17.60;99.90;;;;;;4997927;28;20548;-76
2022/05/09 07:47:18;;;;;;;9.45;8.43;;;17.70;99.90;;;;;;4999731;28;20090;-76
2022/05/09 07:49:45;;;;;;;12.10;8.50;;;17.90;99.90;;;;;;4999619;28;20034;-79
2022/05/09 07:52:11;;;;;;;10.00;8.00;;;18.10;99.90;;;;;;5001623;28;20528;-77
2022/05/09 07:54:37;;;;;;;11.68;8.90;;;18.30;99.90;;;;;;4997819;28;20050;-76
2022/05/09 07:57:03;;;;;;;10.07;8.60;;;18.40;99.90;;;;;;4996663;28;20058;-76
2022/05/09 07:59:29;;;;;;;9.95;8.15;;;18.40;99.90;;;;;;4996726;28;20042;-75
2022/05/09 08:01:55;;;;;;;11.77;8.35;;;18.70;99.90;;;;;;4997120;28;20101;-75
2022/05/09 08:04:21;;;;;;;11.75;8.43;;;18.90;99.90;;;;;;4996865;28;20117;-76
2022/05/09 08:06:47;;;;;;;11.60;8.18;;;19.00;99.90;;;;;;4997125;28;20109;-76
2022/05/09 08:09:15;;;;;;;10.95;8.05;;;19.10;99.90;;;;;;4997312;28;20035;-77
2022/05/09 08:11:41;;;;;;;9.10;7.60;;;19.30;99.90;;;;;;4996705;28;20039;-77
2022/05/09 08:14:08;;;;;;;9.55;7.97;;;19.50;99.90;;;;;;4996951;28;20109;-77
2022/05/09 08:16:34;;;;;;;10.40;7.65;;;19.70;99.90;;;;;;4997169;28;20508;-77
2022/05/09 08:19:02;;;;;;;10.05;8.63;;;19.90;99.90;;;;;;4997108;28;20098;-77
2022/05/09 08:21:28;;;;;;;11.52;8.88;;;19.90;99.90;;;;;;4996095;28;20031;-77
2022/05/09 08:23:53;;;;;;;8.98;7.70;;;19.90;99.90;;;;;;4997963;28;20480;-77
2022/05/09 08:26:22;;;;;;;11.10;8.20;;;19.90;99.90;;;;;;4997561;28;20046;-77
2022/05/09 08:28:56;;;;;;;9.80;8.40;;;20.00;99.90;;;;;;4997168;28;20912;-77
2022/05/09 08:31:24;;;;;;;8.85;7.95;;;20.10;99.90;;;;;;4998627;28;20039;-79
2022/05/09 08:33:56;;;;;;;9.23;7.47;;;20.20;99.90;;;;;;4999487;28;20629;-77
2022/05/09 08:39:08;;;;;;;10.18;7.25;;;20.30;99.90;;;;;;4998662;28;20479;-77
2022/05/09 08:41:54;;;;;;;10.90;7.13;;;20.70;99.40;;;;;;5000072;28;20109;-78
2022/05/09 08:44:39;;;;;;;10.05;7.93;;;20.70;99.60;;;;;;4997316;28;20498;-76
2022/05/09 08:47:13;;;;;;;10.18;7.97;;;20.80;99.90;;;;;;4996213;28;20516;-76
2022/05/09 08:49:50;;;;;;;15.32;8.55;;;20.50;99.90;;;;;;4996735;28;20035;-77
2022/05/09 08:52:42;;;;;;;9.68;7.97;;;20.50;99.60;;;;;;4995653;28;20046;-77
2022/05/09 08:55:09;;;;;;;11.88;7.80;;;20.50;99.90;;;;;;4997478;28;20045;-78
2022/05/09 08:58:14;;;;;;;12.40;8.15;;;20.80;99.90;;;;;;4999724;28;20062;-77
2022/05/09 09:00:40;;;;;;;9.52;8.07;;;20.90;98.70;;;;;;4984509;28;20045;-77
2022/05/09 09:03:31;;;;;;;10.05;7.72;;;21.00;99.00;;;;;;5002990;28;20070;-77
2022/05/09 09:06:22;;;;;;;9.45;7.28;;;21.10;98.70;;;;;;4996428;28;20027;-77
2022/05/09 09:09:16;;;;;;;8.15;7.00;;;21.40;97.40;;;;;;4999493;28;20032;-77
2022/05/09 09:12:05;;;;;;;9.57;7.80;;;21.70;96.90;;;;;;4976266;28;20053;-77
2022/05/09 09:14:43;;;;;;;8.52;7.15;;;21.70;96.50;;;;;;4997547;28;20081;-77
2022/05/09 09:17:42;;;;;;;10.18;7.50;;;21.60;97.50;;;;;;4999267;28;20023;-78
2022/05/09 09:20:25;;;;;;;9.32;7.30;;;21.90;97.00;;;;;;4998820;28;20753;-78
2022/05/09 09:23:02;;;;;;;9.88;7.80;;;22.30;95.40;;;;;;4998717;28;20066;-78
2022/05/09 09:25:37;;;;;;;9.30;7.50;;;22.00;95.50;;;;;;4996437;28;20496;-77
2022/05/09 09:28:18;;;;;;;8.55;7.40;;;22.00;96.50;;;;;;4997922;28;20090;-77
2022/05/09 09:30:46;;;;;;;8.30;7.30;;;21.70;95.70;;;;;;4995766;28;20039;-77
2022/05/09 09:33:15;;;;;;;11.57;7.80;;;22.10;96.30;;;;;;4995518;28;20050;-77
2022/05/09 09:35:47;;;;;;;9.93;7.55;;;22.30;96.00;;;;;;4995766;28;20117;-77
2022/05/09 09:38:22;;;;;;;11.43;7.45;;;22.40;93.70;;;;;;4994032;28;20035;-76
2022/05/09 09:40:49;;;;;;;10.85;7.68;;;22.30;94.10;;;;;;4996091;28;20122;-77
2022/05/09 09:43:14;;;;;;;8.95;7.03;;;22.40;95.10;;;;;;4995625;28;20673;-77
2022/05/09 09:45:46;;;;;;;9.07;7.55;;;22.60;92.40;;;;;;4995742;28;20041;-77
2022/05/09 09:48:13;;;;;;;10.32;7.00;;;23.00;92.80;;;;;;4995897;28;20053;-77
2022/05/09 09:51:03;;;;;;;8.95;6.70;;;22.90;91.80;;;;;;4995315;28;20030;-77
2022/05/09 09:53:42;;;;;;;9.85;6.75;;;23.20;91.80;;;;;;4995174;28;20023;-77
2022/05/09 09:56:25;;;;;;;8.70;6.40;;;23.30;91.80;;;;;;4995697;28;20073;-77
2022/05/09 09:58:57;;;;;;;8.40;6.57;;;23.60;92.40;;;;;;4995613;28;20037;-76
2022/05/09 10:01:26;;;;;;;8.05;5.80;;;23.70;88.90;;;;;;4994785;28;20031;-77
2022/05/09 10:04:09;;;;;;;8.52;6.45;;;23.90;90.30;;;;;;4994971;28;20062;-77
2022/05/09 10:06:55;;;;;;;9.55;6.85;;;24.10;89.90;;;;;;4995136;28;20637;-77
2022/05/09 10:09:21;;;;;;;10.15;7.72;;;24.00;87.60;;;;;;4993887;28;20041;-77
2022/05/09 10:11:47;;;;;;;12.00;7.78;;;23.70;89.40;;;;;;4995039;28;20042;-76
2022/05/09 10:14:33;;;;;;;8.88;6.68;;;24.10;88.90;;;;;;4995418;28;20501;-76
2022/05/09 10:17:17;;;;;;;8.23;6.82;;;24.30;87.70;;;;;;4995383;28;20041;-76
2022/05/09 10:19:43;;;;;;;8.75;6.35;;;24.30;87.40;;;;;;4994280;28;20057;-76
2022/05/09 10:25:17;;;;;;;7.10;6.40;;;24.30;89.40;;;;;;4995106;28;20063;-77
2022/05/09 10:27:44;;;;;;;7.65;6.32;;;24.50;88.20;;;;;;4995580;28;20031;-77
2022/05/09 10:30:29;;;;;;;10.20;8.00;;;24.80;87.40;;;;;;4994343;28;20043;-77
2022/05/09 10:32:56;;;;;;;8.50;6.68;;;24.70;88.50;;;;;;4995513;28;20519;-77
2022/05/09 10:35:37;;;;;;;7.13;6.43;;;24.90;83.30;;;;;;4994249;28;20034;-78
2022/05/09 10:38:12;;;;;;;11.30;6.13;;;24.70;82.60;;;;;;4995877;28;20057;-79
2022/05/09 10:40:44;;;;;;;7.07;6.07;;;25.10;81.80;;;;;;4993593;28;20074;-78
2022/05/09 10:43:15;;;;;;;6.75;6.10;;;25.40;81.10;;;;;;4997863;28;20031;-79
2022/05/09 10:45:46;;;;;;;6.20;5.40;;;25.30;78.70;;;;;;4998842;28;20109;-78
2022/05/09 10:48:35;;;;;;;6.93;6.05;;;25.40;81.70;;;;;;4996994;28;20038;-81
2022/05/09 10:51:14;;;;;;;6.10;5.38;;;25.00;79.60;;;;;;4999139;28;20130;-79
2022/05/09 10:53:53;;;;;;;7.10;5.70;;;24.90;81.20;;;;;;4999251;28;20038;-79
2022/05/09 10:56:37;;;;;;;7.68;5.65;;;25.40;82.10;;;;;;4998718;28;20109;-78
2022/05/09 10:59:10;;;;;;;6.75;5.45;;;26.10;80.30;;;;;;4998832;28;20592;-78
2022/05/09 11:01:51;;;;;;;5.95;5.28;;;26.10;77.80;;;;;;4997485;28;21127;-80
2022/05/09 11:04:18;;;;;;;6.13;4.97;;;26.50;78.30;;;;;;4997335;28;20041;-78
2022/05/09 11:07:08;;;;;;;6.75;5.65;;;26.90;74.50;;;;;;4997012;28;20039;-77
2022/05/09 11:10:10;;;;;;;6.30;5.20;;;26.70;75.50;;;;;;4995251;28;20031;-81
2022/05/09 11:13:00;;;;;;;7.13;5.72;;;26.60;73.60;;;;;;4995026;28;20039;-78
2022/05/09 11:15:56;;;;;;;8.00;5.20;;;26.40;77.30;;;;;;4997627;28;20031;-78
2022/05/09 11:19:14;;;;;;;6.00;5.40;;;25.50;75.40;;;;;;5000575;28;20035;-78
2022/05/09 11:21:54;;;;;;;6.55;5.40;;;25.20;76.60;;;;;;4996483;28;20035;-75
2022/05/09 11:25:01;;;;;;;7.15;5.47;;;25.40;73.60;;;;;;4999474;28;20070;-77
2022/05/09 11:27:39;;;;;;;6.70;5.20;;;25.90;74.20;;;;;;4997943;28;20022;-77
2022/05/09 11:30:19;;;;;;;6.15;5.55;;;26.20;74.40;;;;;;4998371;28;20098;-76
2022/05/09 11:32:46;;;;;;;5.82;5.20;;;26.80;70.90;;;;;;4998297;28;20034;-77
2022/05/09 11:35:30;;;;;;;5.55;4.53;;;26.60;70.10;;;;;;4997816;28;20039;-77
2022/05/09 11:38:11;;;;;;;5.85;4.57;;;27.00;70.20;;;;;;5003814;28;20058;-79
2022/05/09 11:40:42;;;;;;;7.60;4.70;;;27.00;66.70;;;;;;5011120;28;20038;-77
2022/05/09 11:43:32;;;;;;;6.40;4.65;;;27.00;65.30;;;;;;4997403;28;20038;-78
2022/05/09 11:45:58;;;;;;;8.43;4.85;;;27.10;65.90;;;;;;5000488;28;20071;-80
2022/05/09 11:48:24;;;;;;;6.38;4.50;;;26.60;68.50;;;;;;4999972;28;20425;-79
2022/05/09 11:51:16;;;;;;;6.38;4.35;;;26.30;70.70;;;;;;4998145;28;20039;-76
2022/05/09 11:53:49;;;;;;;7.45;4.20;;;26.80;68.30;;;;;;4997572;28;20118;-78
2022/05/09 11:56:15;;;;;;;8.40;4.68;;;26.90;69.20;;;;;;4997526;28;20156;-77
2022/05/09 11:58:43;;;;;;;5.82;4.35;;;26.90;65.80;;;;;;4996962;28;20121;-77
2022/05/09 12:01:09;;;;;;;5.13;4.40;;;27.10;65.90;;;;;;4996898;28;20044;-77
2022/05/09 12:03:41;;;;;;;6.35;4.43;;;27.10;66.40;;;;;;4997002;28;20037;-77
2022/05/09 12:06:28;;;;;;;5.47;4.68;;;27.30;63.90;;;;;;4997274;28;20043;-77
2022/05/09 12:08:56;;;;;;;5.63;4.25;;;27.10;68.90;;;;;;4996936;28;20065;-77
2022/05/09 12:11:31;;;;;;;5.20;4.30;;;27.80;71.60;;;;;;4996878;28;20035;-77
2022/05/09 12:14:00;;;;;;;5.75;4.10;;;28.50;65.50;;;;;;4996865;28;20035;-77
2022/05/09 12:16:35;;;;;;;4.85;4.40;;;28.80;63.00;;;;;;4997137;28;20038;-77
2022/05/09 12:19:03;;;;;;;5.15;4.18;;;29.20;64.70;;;;;;4999182;28;20046;-78
2022/05/09 12:21:41;;;;;;;7.15;4.30;;;29.70;63.60;;;;;;4996420;28;20039;-77
2022/05/09 12:24:15;;;;;;;5.93;4.45;;;29.60;59.50;;;;;;4997013;28;20098;-78
2022/05/09 12:26:46;;;;;;;6.68;4.80;;;29.10;61.30;;;;;;4997039;28;20492;-78
2022/05/09 12:29:11;;;;;;;6.93;4.30;;;28.30;63.60;;;;;;4996112;28;20062;-77
2022/05/09 12:31:49;;;;;;;4.32;3.92;;;27.50;64.10;;;;;;4996723;28;20118;-77
2022/05/09 12:34:17;;;;;;;6.07;4.28;;;27.40;65.80;;;;;;4996961;28;20505;-77
2022/05/09 12:36:47;;;;;;;4.80;4.10;;;27.80;64.80;;;;;;4996646;28;20289;-76
2022/05/09 12:39:16;;;;;;;6.35;4.25;;;28.10;59.90;;;;;;4996772;28;20034;-77
2022/05/09 12:41:52;;;;;;;5.65;4.30;;;28.30;61.60;;;;;;4996649;28;20540;-77
2022/05/09 12:44:34;;;;;;;5.65;4.30;;;28.10;59.40;;;;;;4996255;28;20023;-76
2022/05/09 12:47:34;;;;;;;6.80;4.60;;;28.40;61.20;;;;;;4997010;28;20050;-76
2022/05/09 12:50:30;;;;;;;4.80;4.28;;;28.80;61.50;;;;;;4995655;28;20042;-79
2022/05/09 12:53:00;;;;;;;5.70;4.00;;;28.70;58.70;;;;;;4996181;28;20035;-76
2022/05/09 12:55:52;;;;;;;4.55;4.00;;;28.30;59.40;;;;;;4995379;28;20055;-78
2022/05/09 12:58:30;;;;;;;9.50;4.05;;;27.70;60.00;;;;;;4991407;28;20125;-75
2022/05/09 13:01:02;;;;;;;5.05;4.20;;;26.40;61.30;;;;;;4992689;28;20524;-75
2022/05/09 13:03:27;;;;;;;4.97;4.10;;;25.60;64.90;;;;;;4996208;28;20035;-75
2022/05/09 13:05:53;;;;;;;4.97;3.97;;;25.70;66.40;;;;;;4996469;28;20035;-75
2022/05/09 13:08:19;;;;;;;5.93;4.38;;;26.40;68.10;;;;;;4996123;28;20413;-78
2022/05/09 13:10:53;;;;;;;5.15;4.00;;;27.00;62.40;;;;;;4995672;28;20046;-77
2022/05/09 13:14:06;;;;;;;7.28;4.10;;;27.80;60.60;;;;;;4992986;28;20110;-75
2022/05/09 13:16:36;;;;;;;5.38;4.50;;;28.70;59.10;;;;;;4976034;28;20035;-76
2022/05/09 13:19:03;;;;;;;5.88;4.30;;;29.30;61.70;;;;;;4980835;28;20035;-75
2022/05/09 13:21:37;;;;;;;5.97;4.05;;;29.50;60.70;;;;;;4985342;28;20073;-76
2022/05/09 13:24:06;;;;;;;4.60;4.10;;;30.00;57.90;;;;;;4976394;28;20378;-78
2022/05/09 13:26:31;;;;;;;5.57;4.10;;;30.40;56.40;;;;;;4976537;28;20035;-77
2022/05/09 13:29:09;;;;;;;4.78;4.07;;;30.00;55.30;;;;;;4976363;28;20042;-76
2022/05/09 13:31:43;;;;;;;5.05;4.25;;;29.00;58.90;;;;;;4976171;28;20043;-75
2022/05/09 13:34:28;;;;;;;5.35;4.10;;;29.70;57.30;;;;;;4975728;28;20074;-77
2022/05/09 13:36:54;;;;;;;4.97;4.10;;;30.60;56.90;;;;;;4974756;28;20493;-74
2022/05/09 13:39:25;;;;;;;5.25;3.80;;;30.90;57.20;;;;;;4974514;28;20028;-75
2022/05/09 13:41:55;;;;;;;4.45;3.90;;;30.80;59.70;;;;;;4992528;28;20031;-76
2022/05/09 13:44:22;;;;;;;4.88;3.75;;;31.70;53.40;;;;;;4992431;28;20070;-75
2022/05/09 13:46:49;;;;;;;4.45;3.33;;;32.20;52.10;;;;;;4993512;28;20550;-76
2022/05/09 13:49:17;;;;;;;4.43;4.03;;;31.90;51.30;;;;;;4995161;28;20031;-81
2022/05/09 13:51:58;;;;;;;3.83;3.40;;;31.50;52.90;;;;;;4983942;28;20110;-76
2022/05/09 13:54:29;;;;;;;6.97;3.67;;;31.40;51.10;;;;;;4975927;28;20118;-75
2022/05/09 13:57:15;;;;;;;4.30;3.88;;;30.20;52.80;;;;;;4976232;28;20505;-74
2022/05/09 13:59:42;;;;;;;6.93;3.83;;;29.30;54.00;;;;;;4976670;28;20088;-74
2022/05/09 14:02:11;;;;;;;5.63;3.17;;;29.90;56.90;;;;;;4975459;28;20040;-75
2022/05/09 14:04:40;;;;;;;3.50;3.20;;;31.60;51.30;;;;;;4980890;28;20041;-76
2022/05/09 14:09:51;;;;;;;4.57;3.40;;;33.90;47.20;;;;;;4984200;28;20039;-75
2022/05/09 14:12:19;;;;;;;5.75;3.70;;;33.70;49.00;;;;;;4986611;28;20022;-75
2022/05/09 14:15:07;;;;;;;3.85;3.38;;;33.10;47.50;;;;;;4995265;28;20036;-77
2022/05/09 14:17:37;;;;;;;4.95;3.42;;;33.50;48.90;;;;;;4994520;28;20038;-77
2022/05/09 14:20:07;;;;;;;3.75;3.30;;;34.00;46.70;;;;;;4994184;28;20039;-77
2022/05/09 14:22:33;;;;;;;4.07;3.47;;;33.80;47.70;;;;;;4995343;28;20041;-79
2022/05/09 14:30:41;;;;;;;5.18;3.63;;;34.10;46.10;;;;;;4975619;28;20051;-78
2022/05/09 14:33:30;;;;;;;4.78;3.33;;;33.80;45.10;;;;;;4974067;28;20031;-77
2022/05/09 14:35:56;;;;;;;6.32;3.55;;;31.90;48.10;;;;;;4975644;28;20038;-76
2022/05/09 14:38:36;;;;;;;3.97;3.38;;;31.10;49.90;;;;;;4976049;28;20031;-76
2022/05/09 14:41:40;;;;;;;4.82;3.40;;;31.00;49.30;;;;;;4986309;28;20042;-75
2022/05/09 14:44:24;;;;;;;4.35;3.72;;;29.70;50.70;;;;;;4995043;28;20811;-76
2022/05/09 14:46:59;;;;;;;4.82;3.38;;;30.20;55.50;;;;;;4995048;28;20089;-76
2022/05/09 14:49:26;;;;;;;3.90;3.45;;;32.00;49.90;;;;;;4993472;28;20215;-76
2022/05/09 14:52:21;;;;;;;3.80;3.40;;;33.70;48.60;;;;;;4994785;28;20118;-76
2022/05/09 14:57:51;;;;;;;6.70;3.38;;;35.80;48.50;;;;;;4998823;28;20035;-76
2022/05/09 15:00:22;;;;;;;4.75;3.40;;;35.70;42.50;;;;;;4998364;28;20485;-78
2022/05/09 15:02:56;;;;;;;4.72;3.50;;;35.90;42.60;;;;;;5004286;28;20027;-79
2022/05/09 15:05:22;;;;;;;3.95;3.33;;;35.80;42.60;;;;;;4999777;28;20113;-77
2022/05/09 15:07:48;;;;;;;4.45;3.30;;;35.30;41.70;;;;;;4985645;28;20111;-78
2022/05/09 15:10:14;;;;;;;5.30;3.00;;;35.40;44.80;;;;;;4997741;28;20042;-77
2022/05/09 15:12:42;;;;;;;4.45;3.50;;;36.30;41.10;;;;;;4990874;28;20046;-77
2022/05/09 15:15:08;;;;;;;4.05;3.25;;;36.50;46.00;;;;;;4981790;28;20037;-75
2022/05/09 15:17:34;;;;;;;5.70;3.10;;;36.60;41.00;;;;;;4996725;28;20050;-76
2022/05/09 15:19:59;;;;;;;3.88;3.42;;;36.20;42.60;;;;;;4998892;28;20501;-79
2022/05/09 15:22:25;;;;;;;4.93;3.47;;;37.70;41.20;;;;;;4995948;28;20046;-79
2022/05/09 15:24:50;;;;;;;8.30;3.85;;;37.40;40.10;;;;;;4997183;28;20078;-77
2022/05/09 15:27:18;;;;;;;3.83;3.20;;;37.30;40.60;;;;;;4999228;28;20045;-77
2022/05/09 15:29:45;;;;;;;5.15;3.13;;;38.00;39.70;;;;;;5000192;28;20097;-77
2022/05/09 15:32:16;;;;;;;4.30;3.13;;;37.50;39.40;;;;;;4999475;28;20050;-77
2022/05/09 15:34:42;;;;;;;4.35;3.33;;;37.30;40.80;;;;;;5000841;28;20851;-78
2022/05/09 15:37:08;;;;;;;6.28;3.05;;;34.50;41.70;;;;;;5001018;28;20081;-78
2022/05/09 15:39:36;;;;;;;5.40;3.60;;;33.70;45.40;;;;;;4999017;28;20035;-77
2022/05/09 15:42:02;;;;;;;3.60;3.30;;;34.60;43.10;;;;;;4986514;28;20042;-77
2022/05/09 15:44:29;;;;;;;7.40;3.80;;;34.40;43.20;;;;;;4977228;28;20039;-76
2022/05/09 15:46:54;;;;;;;3.63;3.33;;;33.30;43.90;;;;;;4985103;28;20086;-76
2022/05/09 15:49:31;;;;;;;3.67;3.15;;;33.20;44.10;;;;;;4998009;28;20425;-76
2022/05/09 15:51:57;;;;;;;4.72;3.30;;;32.10;44.90;;;;;;4987932;28;20469;-75
2022/05/09 15:54:24;;;;;;;6.03;3.38;;;32.90;49.00;;;;;;4977662;28;20042;-77
2022/05/09 15:56:50;;;;;;;6.55;3.45;;;34.00;45.40;;;;;;4978121;28;20501;-76
2022/05/09 15:59:21;;;;;;;5.25;3.42;;;34.10;42.40;;;;;;4977775;28;20039;-75
2022/05/09 16:01:47;;;;;;;5.65;3.78;;;35.60;43.60;;;;;;4983557;28;20806;-76
2022/05/09 16:04:12;;;;;;;8.07;3.67;;;35.40;41.70;;;;;;4996992;28;20059;-77
2022/05/09 16:12:09;;;;;;;4.22;3.20;;;37.00;40.00;;;;;;4994728;28;20043;-77
2022/05/09 16:14:42;;;;;;;4.15;3.00;;;36.40;40.00;;;;;;4989311;28;20038;-77
2022/05/09 16:17:11;;;;;;;5.60;3.50;;;35.00;40.10;;;;;;4981080;28;20054;-76
2022/05/09 16:19:43;;;;;;;6.18;3.45;;;34.40;42.20;;;;;;4985126;28;20039;-78
2022/05/09 16:22:14;;;;;;;7.10;3.80;;;35.10;41.30;;;;;;4990420;28;20409;-77
2022/05/09 16:24:41;;;;;;;3.60;3.30;;;34.80;40.70;;;;;;4997762;28;20178;-77
2022/05/09 16:27:41;;;;;;;3.65;3.20;;;33.70;43.20;;;;;;4996851;28;20702;-77
2022/05/09 16:30:28;;;;;;;4.25;3.50;;;31.40;45.90;;;;;;4997154;28;20495;-77
2022/05/09 16:32:56;;;;;;;5.97;3.55;;;30.10;47.10;;;;;;4997207;28;20728;-77
2022/05/09 16:35:22;;;;;;;6.05;3.50;;;29.00;48.60;;;;;;4996555;28;20039;-76
2022/05/09 16:37:49;;;;;;;4.63;3.47;;;28.00;52.10;;;;;;4982367;28;20039;-76
2022/05/09 16:40:16;;;;;;;5.35;3.55;;;27.20;59.40;;;;;;4976236;28;20042;-76
2022/05/09 16:42:44;;;;;;;4.10;3.50;;;26.40;62.50;;;;;;4990522;28;20564;-77
2022/05/09 16:45:51;;;;;;;5.55;3.60;;;25.80;59.00;;;;;;4997653;28;20042;-79
2022/05/09 16:48:17;;;;;;;4.90;3.65;;;25.30;60.60;;;;;;4995618;28;20039;-76
2022/05/09 16:50:44;;;;;;;6.25;3.58;;;24.90;66.90;;;;;;4996726;28;20034;-76
2022/05/09 16:53:10;;;;;;;4.15;3.42;;;24.70;64.50;;;;;;4996527;28;20034;-76
2022/05/09 16:55:38;;;;;;;4.60;3.55;;;24.60;63.60;;;;;;4996567;28;20035;-76
2022/05/09 16:58:05;;;;;;;4.20;3.80;;;24.70;62.30;;;;;;4996931;28;20117;-75
2022/05/09 17:00:32;;;;;;;6.93;3.58;;;25.00;65.20;;;;;;4996427;28;20177;-83
2022/05/09 17:08:14;;;;;;;5.15;3.90;;;24.70;64.20;;;;;;5173980;27;20690;-78
2022/05/09 17:10:40;;;;;;;5.43;3.88;;;24.60;65.30;;;;;;5177767;27;20041;-79
2022/05/09 17:13:06;;;;;;;4.38;3.97;;;24.50;62.90;;;;;;5177826;27;20035;-80
2022/05/09 17:15:37;;;;;;;5.18;3.60;;;24.40;62.70;;;;;;5176656;27;20114;-80
2022/05/09 17:18:05;;;;;;;8.60;4.38;;;24.30;61.70;;;;;;5176624;27;20091;-83
2022/05/09 17:20:33;;;;;;;9.27;3.97;;;24.30;62.70;;;;;;5174947;27;20031;-76
2022/05/09 17:22:58;;;;;;;5.63;3.72;;;24.20;65.90;;;;;;5174402;27;20111;-77
